Time;durP1;ratioP1;P1;durP2;ratioP2;P2;SDS_P1;SDS_P2;PMS_P1;PMS_P2;Temp;Humidity;BMP_temperature;BMP_pressure;BME280_temperature;BME280_humidity;BME280_pressure;Samples;Min_cycle;Max_cycle;Signal;HPM_P1;HPM_P2
2022/06/15 00:01:12;;;;;;;10.55;3.70;;;;;;;19.24;55.19;98546.50;5346269;26;20454;-84
2022/06/15 00:03:40;;;;;;;8.35;3.70;;;;;;;18.81;56.22;98537.34;5326355;26;20063;-83
2022/06/15 00:06:25;;;;;;;13.30;4.65;;;;;;;19.34;54.21;98536.22;5346379;26;20044;-83
2022/06/15 00:08:55;;;;;;;11.85;3.15;;;;;;;19.97;52.05;98537.81;5346239;26;20466;-83
2022/06/15 00:11:25;;;;;;;7.40;2.97;;;;;;;20.31;50.62;98537.94;5345978;26;20438;-82
2022/06/15 00:13:54;;;;;;;8.23;3.00;;;;;;;20.77;48.26;98543.22;5346316;26;20123;-82
2022/06/15 00:16:22;;;;;;;6.37;2.60;;;;;;;20.38;48.90;98540.00;5346024;26;20650;-82
2022/06/15 00:18:49;;;;;;;10.32;3.10;;;;;;;20.32;48.56;98540.47;5346224;26;20510;-82
2022/06/15 00:21:17;;;;;;;7.07;2.95;;;;;;;19.47;50.97;98542.28;5346191;26;20111;-82
2022/06/15 00:23:45;;;;;;;7.32;3.22;;;;;;;19.80;50.24;98540.84;5345759;26;20111;-82
2022/06/15 00:26:13;;;;;;;7.93;2.83;;;;;;;18.95;53.04;98543.31;5346229;26;20045;-83
2022/06/15 00:28:40;;;;;;;7.70;2.97;;;;;;;18.91;53.65;98541.00;5346075;26;20108;-83
2022/06/15 00:31:07;;;;;;;8.25;3.12;;;;;;;19.00;53.29;98538.59;5345816;26;20116;-83
2022/06/15 00:33:36;;;;;;;7.12;3.00;;;;;;;18.72;54.28;98541.44;5346043;26;20044;-82
2022/06/15 00:36:11;;;;;;;9.38;3.35;;;;;;;18.86;54.02;98540.50;5346107;26;20093;-82
2022/06/15 00:38:41;;;;;;;6.95;2.83;;;;;;;17.82;57.02;98540.38;5346453;26;20119;-83
2022/06/15 00:41:16;;;;;;;8.20;3.33;;;;;;;18.36;55.64;98542.09;5328531;26;21372;-83
2022/06/15 00:43:49;;;;;;;7.35;3.30;;;;;;;18.72;54.08;98544.06;5329069;26;20135;-82
2022/06/15 00:46:16;;;;;;;7.82;3.20;;;;;;;18.37;55.28;98546.38;5348376;26;20056;-83
2022/06/15 00:48:45;;;;;;;10.73;3.35;;;;;;;18.20;55.91;98534.44;5348278;26;20076;-83
2022/06/15 00:51:13;;;;;;;7.25;3.03;;;;;;;18.36;55.37;98539.47;5348129;26;20064;-83
2022/06/15 00:53:40;;;;;;;6.53;2.85;;;;;;;18.98;53.33;98540.47;5328660;26;20119;-82
2022/06/15 00:56:08;;;;;;;8.40;3.40;;;;;;;19.81;50.12;98548.56;5328862;26;20111;-82
2022/06/15 00:58:37;;;;;;;7.50;3.00;;;;;;;18.95;52.77;98548.53;5347920;26;20123;-83
2022/06/15 01:01:05;;;;;;;6.68;2.55;;;;;;;19.80;50.28;98551.31;5328748;26;20074;-83
2022/06/15 01:03:33;;;;;;;6.20;2.92;;;;;;;19.78;50.34;98545.31;5348348;26;20049;-83
2022/06/15 01:06:09;;;;;;;7.07;3.05;;;;;;;19.37;51.41;98542.09;5348049;26;20395;-83
2022/06/15 01:08:45;;;;;;;6.90;2.90;;;;;;;19.32;51.61;98545.97;5348322;26;20079;-83
2022/06/15 01:11:23;;;;;;;6.30;2.87;;;;;;;19.65;50.64;98546.22;5348380;26;20074;-83
2022/06/15 01:14:25;;;;;;;7.72;2.95;;;;;;;19.66;50.49;98544.44;5328107;26;20119;-83
2022/06/15 01:16:58;;;;;;;7.20;2.80;;;;;;;19.76;49.94;98545.44;5289769;26;20099;-83
2022/06/15 01:19:43;;;;;;;5.87;2.80;;;;;;;20.06;49.47;98552.03;5347835;26;20128;-83
2022/06/15 01:22:35;;;;;;;6.22;2.58;;;;;;;19.87;49.81;98550.75;5348403;26;20103;-83
2022/06/15 01:25:38;;;;;;;6.75;2.50;;;;;;;19.60;50.30;98552.75;5348373;26;20130;-83
2022/06/15 01:28:42;;;;;;;6.65;2.62;;;;;;;19.49;51.02;98550.03;5328263;26;20330;-83
2022/06/15 01:31:30;;;;;;;5.97;3.00;;;;;;;19.47;51.14;98554.53;5328386;26;20064;-82
2022/06/15 01:34:19;;;;;;;6.30;2.70;;;;;;;20.39;48.09;98554.75;5347780;26;20555;-83
2022/06/15 01:36:56;;;;;;;9.80;3.15;;;;;;;20.65;47.12;98552.84;5348254;26;20052;-82
2022/06/15 01:39:29;;;;;;;8.80;2.40;;;;;;;20.75;46.68;98555.59;5347999;26;20060;-82
2022/06/15 01:42:03;;;;;;;9.35;2.45;;;;;;;20.85;46.01;98553.13;5347484;26;20358;-82
2022/06/15 01:44:34;;;;;;;6.18;2.55;;;;;;;20.68;46.26;98543.91;5328735;26;20125;-81
2022/06/15 01:47:04;;;;;;;5.78;2.45;;;;;;;20.48;46.73;98548.03;5330004;26;20107;-82
2022/06/15 01:49:40;;;;;;;5.95;2.40;;;;;;;20.56;46.70;98550.09;5328274;26;20047;-82
2022/06/15 01:52:08;;;;;;;7.78;2.75;;;;;;;19.91;48.25;98543.50;5327613;26;20075;-82
2022/06/15 01:54:39;;;;;;;6.65;2.75;;;;;;;19.51;49.36;98542.91;5326631;26;20070;-83
2022/06/15 01:57:08;;;;;;;5.57;2.53;;;;;;;19.93;48.25;98546.84;5346825;26;20569;-82
2022/06/15 02:00:04;;;;;;;6.78;2.58;;;;;;;19.48;49.05;98545.75;5326826;26;20103;-82
2022/06/15 02:02:37;;;;;;;5.47;2.33;;;;;;;19.38;49.56;98542.94;5342402;26;20109;-82
2022/06/15 02:05:24;;;;;;;6.47;2.83;;;;;;;20.03;47.54;98545.22;5346703;26;20061;-82
2022/06/15 02:08:11;;;;;;;5.95;2.40;;;;;;;20.10;47.44;98550.88;5346574;26;20064;-82
2022/06/15 02:11:09;;;;;;;5.15;2.60;;;;;;;19.90;47.53;98541.84;5326487;26;20056;-82
2022/06/15 02:14:00;;;;;;;6.93;2.42;;;;;;;19.84;47.79;98543.13;5326864;26;20075;-82
2022/06/15 02:16:29;;;;;;;6.22;2.67;;;;;;;18.36;51.50;98544.72;5326578;26;20140;-82
2022/06/15 02:18:57;;;;;;;6.22;2.53;;;;;;;18.40;52.18;98544.41;5346427;26;20108;-82
2022/06/15 02:21:25;;;;;;;6.60;2.70;;;;;;;18.31;52.36;98544.19;5346684;26;20059;-82
2022/06/15 02:23:57;;;;;;;5.72;2.90;;;;;;;18.46;51.97;98544.00;5346272;26;20060;-83
2022/06/15 02:26:31;;;;;;;4.75;2.40;;;;;;;18.92;50.38;98545.28;5346724;26;20376;-83
2022/06/15 02:29:06;;;;;;;8.07;2.45;;;;;;;18.84;50.50;98552.84;5346520;26;20139;-83
2022/06/15 02:31:34;;;;;;;6.28;2.67;;;;;;;18.89;50.22;98551.56;5326565;26;20455;-83
2022/06/15 02:34:02;;;;;;;5.20;2.40;;;;;;;19.22;49.33;98545.78;5346397;26;20067;-83
2022/06/15 02:36:32;;;;;;;6.62;2.50;;;;;;;19.01;50.11;98547.28;5346135;26;20075;-83
2022/06/15 02:39:00;;;;;;;6.05;2.50;;;;;;;19.18;49.59;98541.72;5346523;26;20067;-82
2022/06/15 02:41:28;;;;;;;6.30;2.33;;;;;;;18.41;51.83;98545.25;5346311;26;20130;-82
2022/06/15 02:43:56;;;;;;;7.15;2.50;;;;;;;18.81;51.30;98542.56;5346369;26;20105;-83
2022/06/15 02:46:24;;;;;;;4.43;2.10;;;;;;;19.40;48.86;98548.06;5327460;26;20395;-83
2022/06/15 02:48:52;;;;;;;4.78;2.30;;;;;;;19.72;47.91;98544.00;5327269;26;20049;-82
2022/06/15 02:51:27;;;;;;;5.47;2.15;;;;;;;19.51;48.50;98546.34;5326500;26;20118;-82
2022/06/15 02:53:57;;;;;;;7.32;2.70;;;;;;;18.74;50.41;98537.78;5346654;26;20463;-82
2022/06/15 02:56:24;;;;;;;5.87;2.50;;;;;;;18.92;50.04;98545.28;5326960;26;20116;-82
2022/06/15 02:58:53;;;;;;;6.25;2.62;;;;;;;19.31;48.86;98547.75;5345859;26;20352;-82
2022/06/15 03:01:20;;;;;;;7.28;2.40;;;;;;;19.46;48.88;98542.38;5346383;26;20478;-82
2022/06/15 03:03:48;;;;;;;6.70;2.45;;;;;;;19.49;48.45;98552.63;5346559;26;20056;-82
2022/06/15 03:06:17;;;;;;;6.03;2.33;;;;;;;19.27;48.83;98554.16;5346279;26;20063;-82
2022/06/15 03:08:45;;;;;;;6.72;2.67;;;;;;;18.98;49.92;98547.50;5346379;26;20076;-82
2022/06/15 03:11:12;;;;;;;5.47;2.50;;;;;;;19.19;49.09;98550.41;5346549;26;20108;-82
2022/06/15 03:13:39;;;;;;;6.70;2.60;;;;;;;18.43;50.66;98551.22;5346043;26;20368;-83
2022/06/15 03:16:06;;;;;;;5.22;2.37;;;;;;;18.13;52.05;98546.22;5346599;26;20074;-83
2022/06/15 03:18:33;;;;;;;9.43;2.58;;;;;;;18.27;51.91;98546.16;5345954;26;20107;-83
2022/06/15 03:21:02;;;;;;;5.12;2.30;;;;;;;18.93;49.55;98545.22;5346396;26;20119;-83
2022/06/15 03:23:30;;;;;;;5.60;2.40;;;;;;;18.91;49.36;98554.06;5346356;26;20072;-82
2022/06/15 03:25:59;;;;;;;5.43;2.30;;;;;;;19.05;49.19;98548.75;5346139;26;20127;-82
2022/06/15 03:28:26;;;;;;;6.78;2.62;;;;;;;19.05;49.02;98552.19;5346405;26;20052;-82
2022/06/15 03:30:53;;;;;;;3.20;2.00;;;;;;;19.25;48.34;98557.84;5346458;26;20058;-82
2022/06/15 03:33:20;;;;;;;8.00;2.40;;;;;;;19.54;47.76;98548.72;5346127;26;20052;-82
2022/06/15 03:35:48;;;;;;;7.45;2.50;;;;;;;19.24;48.55;98546.50;5346355;26;20613;-83
2022/06/15 03:38:15;;;;;;;5.28;2.20;;;;;;;19.11;49.38;98542.25;5346303;26;20120;-83
2022/06/15 03:40:46;;;;;;;3.83;2.12;;;;;;;19.57;48.63;98547.75;5346004;26;20112;-82
2022/06/15 03:43:14;;;;;;;5.70;2.62;;;;;;;20.12;47.44;98548.97;5322771;27;20442;-82
2022/06/15 03:45:44;;;;;;;5.65;2.05;;;;;;;20.61;46.64;98548.75;5324304;26;20095;-82
2022/06/15 03:48:11;;;;;;;4.65;2.30;;;;;;;21.39;44.68;98552.44;5323580;26;20521;-82
2022/06/15 03:50:39;;;;;;;5.70;2.10;;;;;;;21.36;44.36;98551.69;5324024;26;20098;-82
2022/06/15 03:53:07;;;;;;;4.93;2.20;;;;;;;21.85;43.35;98545.16;5324321;26;20426;-82
2022/06/15 03:55:35;;;;;;;7.65;2.10;;;;;;;22.94;41.03;98547.50;5323708;26;20060;-82
2022/06/15 03:58:02;;;;;;;4.20;1.85;;;;;;;23.70;39.30;98553.19;5322637;27;20064;-83
2022/06/15 04:00:30;;;;;;;3.78;1.77;;;;;;;24.44;37.78;98544.78;5324110;26;20074;-83
2022/06/15 04:02:57;;;;;;;4.62;1.98;;;;;;;24.88;36.61;98550.41;5322383;27;20056;-83
2022/06/15 04:05:45;;;;;;;4.40;1.92;;;;;;;25.33;36.27;98548.75;5324225;26;20057;-83
2022/06/15 04:11:58;;;;;;;2.60;1.62;;;;;;;26.44;34.62;98546.75;5323877;26;20120;-83
2022/06/15 04:14:00;;;;;;;5.57;1.98;;;;;;;27.08;34.28;98554.31;5322340;27;20400;-83
2022/06/15 04:16:28;;;;;;;3.37;1.70;;;;;;;27.90;32.47;98552.81;5323780;26;20120;-83
2022/06/15 04:18:55;;;;;;;8.23;1.95;;;;;;;28.61;31.61;98548.75;5323928;26;20108;-83
2022/06/15 04:21:23;;;;;;;5.85;2.00;;;;;;;29.33;31.31;98557.53;5324121;26;20056;-83
2022/06/15 04:23:50;;;;;;;4.50;1.83;;;;;;;30.11;29.63;98554.03;5323741;26;20434;-83
2022/06/15 04:26:17;;;;;;;5.10;1.90;;;;;;;30.66;29.24;98552.91;5324080;26;20132;-83
2022/06/15 04:28:44;;;;;;;4.10;1.90;;;;;;;31.42;27.35;98555.44;5322440;27;20438;-83
2022/06/15 04:31:11;;;;;;;5.12;1.90;;;;;;;31.81;26.60;98557.78;5324644;26;20068;-83
2022/06/15 04:33:38;;;;;;;5.55;2.80;;;;;;;32.29;25.90;98558.06;5324225;26;20116;-83
2022/06/15 04:36:06;;;;;;;6.57;1.85;;;;;;;32.83;26.49;98555.66;5322556;27;20056;-83
2022/06/15 04:38:33;;;;;;;3.55;1.62;;;;;;;33.16;26.49;98565.75;5304173;27;20083;-83
2022/06/15 04:41:02;;;;;;;4.25;1.65;;;;;;;33.51;25.85;98566.59;5325096;26;20048;-84
2022/06/15 04:43:29;;;;;;;3.80;1.92;;;;;;;33.57;25.05;98561.22;5326076;26;20064;-84
2022/06/15 04:45:57;;;;;;;4.10;1.67;;;;;;;34.22;24.82;98557.09;5346137;26;20060;-84
2022/06/15 04:48:24;;;;;;;4.10;1.90;;;;;;;34.32;24.61;98559.38;5345822;26;20067;-84
2022/06/15 04:50:51;;;;;;;2.87;1.65;;;;;;;34.67;24.10;98557.38;5329026;26;185972;-83
2022/06/15 04:53:18;;;;;;;5.97;1.70;;;;;;;34.92;23.50;98560.25;5316858;26;20320;-84
2022/06/15 04:55:45;;;;;;;4.00;1.60;;;;;;;35.42;22.97;98563.22;5345895;26;20107;-84
2022/06/15 04:58:12;;;;;;;4.25;1.83;;;;;;;35.89;21.96;98556.62;5345462;26;20139;-84
2022/06/15 05:00:40;;;;;;;8.10;1.80;;;;;;;36.55;21.38;98557.22;5345798;26;20048;-84
2022/06/15 05:03:08;;;;;;;5.28;1.77;;;;;;;36.82;21.25;98561.34;5326136;26;20170;-84
2022/06/15 05:05:36;;;;;;;3.75;1.80;;;;;;;37.40;20.49;98565.50;5345528;26;20108;-84
2022/06/15 05:08:03;;;;;;;9.30;1.80;;;;;;;37.56;21.50;98567.59;5345793;26;20068;-83
2022/06/15 05:10:30;;;;;;;5.85;1.67;;;;;;;37.84;20.35;98569.72;5345664;26;20063;-84
2022/06/15 05:12:57;;;;;;;5.93;1.90;;;;;;;37.87;20.48;98569.28;5345541;26;20075;-84
2022/06/15 05:15:25;;;;;;;5.10;2.00;;;;;;;37.90;20.47;98574.19;5345889;26;20095;-84
2022/06/15 05:17:52;;;;;;;3.95;1.65;;;;;;;38.02;18.29;98572.38;5345283;26;20060;-84
2022/06/15 05:20:19;;;;;;;5.50;1.95;;;;;;;38.29;18.78;98580.09;5345699;26;20060;-83
2022/06/15 05:22:53;;;;;;;5.05;1.90;;;;;;;38.36;18.63;98578.09;5345861;26;20055;-84
2022/06/15 05:25:21;;;;;;;4.60;1.77;;;;;;;38.28;19.72;98579.25;5345595;26;20060;-84
2022/06/15 05:27:48;;;;;;;3.65;1.87;;;;;;;38.53;19.51;98580.97;5346451;26;20379;-84
2022/06/15 05:30:15;;;;;;;4.00;1.62;;;;;;;38.91;19.33;98580.50;5346826;26;20079;-84
2022/06/15 05:32:42;;;;;;;7.00;2.53;;;;;;;39.36;18.34;98577.22;5346515;26;20095;-84
2022/06/15 05:35:09;;;;;;;6.18;2.30;;;;;;;39.14;19.16;98583.25;5326906;26;20080;-84
2022/06/15 05:37:38;;;;;;;6.53;2.08;;;;;;;39.29;18.59;98582.75;5346533;26;20091;-84
2022/06/15 05:40:06;;;;;;;4.32;2.00;;;;;;;39.36;17.89;98580.75;5346383;26;20058;-84
2022/06/15 05:42:34;;;;;;;4.97;1.83;;;;;;;39.59;17.85;98577.19;5326981;26;20060;-84
2022/06/15 05:45:02;;;;;;;3.78;1.70;;;;;;;39.72;16.88;98576.06;5327050;26;20065;-84
2022/06/15 05:47:29;;;;;;;3.28;1.67;;;;;;;39.86;15.63;98585.53;5346204;26;20549;-84
2022/06/15 05:49:58;;;;;;;2.97;1.60;;;;;;;40.02;15.49;98586.66;5327174;26;20076;-84
2022/06/15 05:52:26;;;;;;;6.65;2.03;;;;;;;40.34;15.22;98587.78;5326459;26;20135;-84
2022/06/15 05:54:54;;;;;;;4.07;1.90;;;;;;;40.62;15.03;98592.31;5342499;26;20119;-84
2022/06/15 05:57:23;;;;;;;4.97;1.75;;;;;;;40.61;14.59;98592.56;5345596;26;20056;-85
2022/06/15 05:59:51;;;;;;;3.72;1.80;;;;;;;40.04;14.80;98584.53;5344558;26;20105;-84
2022/06/15 06:02:20;;;;;;;4.22;2.00;;;;;;;40.75;15.30;98588.47;5345909;26;20067;-84
2022/06/15 06:04:57;;;;;;;3.80;1.70;;;;;;;41.10;15.03;98588.19;5326285;26;20120;-83
2022/06/15 06:07:28;;;;;;;4.15;1.90;;;;;;;41.03;14.71;98592.94;5345511;26;20061;-86
2022/06/15 06:09:56;;;;;;;3.50;1.67;;;;;;;38.46;16.15;98586.44;5345234;26;20056;-86
2022/06/15 06:12:24;;;;;;;4.57;1.80;;;;;;;38.95;15.83;98585.22;5346687;26;20075;-86
2022/06/15 06:14:53;;;;;;;3.95;1.70;;;;;;;39.53;16.27;98594.31;5345830;26;20052;-86
2022/06/15 06:17:21;;;;;;;5.80;1.65;;;;;;;38.27;16.36;98598.34;5346240;26;20119;-86
2022/06/15 06:19:48;;;;;;;3.03;1.80;;;;;;;38.97;15.47;98593.91;5345129;26;20082;-83
2022/06/15 06:22:15;;;;;;;4.20;1.65;;;;;;;35.19;19.29;98587.81;5325538;26;20056;-85
2022/06/15 06:24:48;;;;;;;3.92;1.67;;;;;;;38.05;17.56;98598.84;5327530;26;20068;-84
2022/06/15 06:27:17;;;;;;;3.92;1.77;;;;;;;38.18;16.66;98603.25;5346036;26;20373;-83
2022/06/15 06:29:44;;;;;;;9.10;1.92;;;;;;;38.65;16.40;98600.66;5344625;26;20054;-84
2022/06/15 06:32:14;;;;;;;4.68;1.73;;;;;;;38.26;16.04;98599.41;5326531;26;20056;-81
2022/06/15 06:34:41;;;;;;;6.53;1.95;;;;;;;35.57;18.89;98592.47;5345642;26;20116;-81
2022/06/15 06:37:11;;;;;;;4.37;1.83;;;;;;;31.78;23.26;98584.84;5325307;26;20067;-81
2022/06/15 06:39:39;;;;;;;7.37;2.10;;;;;;;32.35;22.19;98582.19;5324787;26;20135;-82
2022/06/15 06:42:06;;;;;;;7.20;2.00;;;;;;;30.50;24.28;98584.97;5345320;26;20060;-81
2022/06/15 06:44:33;;;;;;;3.85;1.60;;;;;;;32.77;21.08;98592.00;5346047;26;20060;-80
2022/06/15 06:47:00;;;;;;;5.60;1.80;;;;;;;32.55;22.56;98587.72;5345946;26;20415;-80
2022/06/15 06:49:29;;;;;;;5.15;1.98;;;;;;;31.93;23.61;98586.47;5343654;26;20062;-81
2022/06/15 06:51:58;;;;;;;6.28;1.60;;;;;;;32.36;23.30;98594.53;5345959;26;20064;-81
2022/06/15 06:54:25;;;;;;;4.97;1.70;;;;;;;31.96;22.63;98593.25;5345677;26;20052;-81
2022/06/15 06:56:53;;;;;;;4.03;1.60;;;;;;;33.24;21.24;98600.34;5344598;26;20049;-81
2022/06/15 06:59:27;;;;;;;5.05;1.73;;;;;;;31.70;23.54;98590.25;5344628;26;20053;-81
2022/06/15 07:01:54;;;;;;;10.77;1.98;;;;;;;31.58;23.72;98593.41;5346155;26;20470;-80
2022/06/15 07:04:21;;;;;;;4.37;1.60;;;;;;;32.34;22.29;98590.41;5345434;26;20060;-80
2022/06/15 07:06:49;;;;;;;4.60;1.77;;;;;;;31.50;23.37;98588.19;5345954;26;20065;-80
2022/06/15 07:09:19;;;;;;;2.97;1.75;;;;;;;32.52;22.00;98596.91;5345321;26;20048;-81
2022/06/15 07:11:48;;;;;;;4.72;2.03;;;;;;;32.92;22.42;98591.09;5345390;26;20080;-80
2022/06/15 07:14:15;;;;;;;3.75;1.90;;;;;;;31.31;23.91;98589.56;5345755;26;20153;-80
2022/06/15 07:16:42;;;;;;;7.03;2.10;;;;;;;31.08;23.42;98589.63;5345878;26;20384;-80
2022/06/15 07:19:10;;;;;;;4.18;1.85;;;;;;;31.18;23.24;98588.53;5344375;26;20378;-80
2022/06/15 07:21:38;;;;;;;6.82;1.90;;;;;;;33.07;21.73;98595.31;5345484;26;20060;-79
2022/06/15 07:24:06;;;;;;;6.07;1.85;;;;;;;34.04;20.30;98597.03;5345371;26;20052;-80
2022/06/15 07:26:40;;;;;;;6.90;2.20;;;;;;;32.24;23.43;98590.69;5345668;26;20448;-80
2022/06/15 07:29:09;;;;;;;6.20;2.00;;;;;;;32.47;22.81;98598.53;5345156;26;20056;-81
2022/06/15 07:31:39;;;;;;;6.22;1.70;;;;;;;33.09;21.91;98595.94;5344809;26;20383;-81
2022/06/15 07:34:08;;;;;;;5.90;2.03;;;;;;;32.61;22.33;98596.78;5345793;26;20053;-80
2022/06/15 07:36:39;;;;;;;4.20;1.80;;;;;;;32.99;22.61;98595.47;5345807;26;20083;-79
2022/06/15 07:39:06;;;;;;;8.40;2.10;;;;;;;33.80;21.35;98593.00;5344584;26;20548;-80
2022/06/15 07:41:34;;;;;;;6.70;2.10;;;;;;;32.97;23.47;98608.22;5344794;26;20119;-80
2022/06/15 07:44:02;;;;;;;7.72;2.20;;;;;;;32.58;23.80;98605.19;5345617;26;20056;-80
2022/06/15 07:46:29;;;;;;;7.30;2.20;;;;;;;33.17;23.26;98607.50;5345477;26;20422;-79
2022/06/15 07:51:51;;;;;;;6.53;2.20;;;;;;;32.71;23.48;98598.09;5345366;26;20119;-80
2022/06/15 07:54:20;;;;;;;7.05;2.08;;;;;;;32.71;23.37;98602.62;5345371;26;20056;-80
2022/06/15 07:56:48;;;;;;;5.45;2.00;;;;;;;32.68;23.43;98603.84;5344847;26;20072;-80
2022/06/15 07:59:15;;;;;;;5.35;1.80;;;;;;;31.61;24.15;98605.53;5344247;26;20119;-80
2022/06/15 08:01:43;;;;;;;6.70;2.20;;;;;;;32.50;23.81;98596.28;5345248;26;20068;-81
2022/06/15 08:04:11;;;;;;;11.57;2.70;;;;;;;33.56;23.11;98601.56;5345558;26;20053;-81
2022/06/15 08:06:41;;;;;;;4.57;1.90;;;;;;;32.79;24.43;98602.47;5345207;26;20062;-81
2022/06/15 08:09:10;;;;;;;5.43;2.03;;;;;;;33.14;23.32;98603.38;5325434;26;20061;-80
2022/06/15 08:11:38;;;;;;;6.45;2.00;;;;;;;33.06;24.37;98599.00;5345358;26;20083;-80
2022/06/15 08:14:05;;;;;;;6.30;2.60;;;;;;;29.88;28.97;98601.00;5345520;26;20119;-80
2022/06/15 08:16:33;;;;;;;6.22;2.53;;;;;;;30.14;26.55;98590.09;5345438;26;20045;-80
2022/06/15 08:19:01;;;;;;;4.75;2.30;;;;;;;30.86;26.49;98587.84;5325053;26;20054;-80
2022/06/15 08:21:31;;;;;;;4.80;2.05;;;;;;;30.70;26.95;98596.81;5344682;26;20064;-80
2022/06/15 08:23:59;;;;;;;6.70;2.40;;;;;;;30.82;27.70;98597.19;5345551;26;20060;-81
2022/06/15 08:26:36;;;;;;;6.55;2.17;;;;;;;31.22;26.01;98593.31;5325980;26;20056;-80
2022/06/15 08:29:11;;;;;;;4.95;2.15;;;;;;;32.75;23.63;98604.72;5325487;26;20415;-80
2022/06/15 08:31:38;;;;;;;7.68;2.15;;;;;;;31.96;25.23;98590.59;5325650;26;20077;-80
2022/06/15 08:34:06;;;;;;;6.47;2.30;;;;;;;31.70;25.82;98592.94;5345545;26;20079;-79
2022/06/15 08:36:36;;;;;;;6.15;2.17;;;;;;;29.96;29.23;98590.31;5345109;26;20087;-79
2022/06/15 08:39:04;;;;;;;5.53;2.00;;;;;;;30.02;28.69;98594.97;5344620;26;20110;-79
2022/06/15 08:41:50;;;;;;;6.25;2.00;;;;;;;29.99;30.79;98595.31;5344231;26;20378;-79
2022/06/15 08:44:38;;;;;;;4.32;2.03;;;;;;;29.83;29.42;98587.41;5345388;26;20402;-79
2022/06/15 08:47:14;;;;;;;7.15;2.72;;;;;;;29.69;31.59;98593.47;5345355;26;20044;-79
2022/06/15 08:49:59;;;;;;;3.80;1.95;;;;;;;31.64;27.78;98589.97;5343804;26;20060;-80
2022/06/15 08:52:51;;;;;;;4.22;2.03;;;;;;;31.27;28.13;98588.28;5345072;26;20074;-80
2022/06/15 08:55:27;;;;;;;4.40;2.20;;;;;;;31.60;28.76;98594.06;5344689;26;20076;-80
2022/06/15 08:57:56;;;;;;;5.80;2.40;;;;;;;31.71;27.20;98587.41;5324686;26;20061;-81
2022/06/15 09:00:32;;;;;;;7.70;2.00;;;;;;;31.66;26.76;98589.78;5344575;26;20061;-80
2022/06/15 09:03:10;;;;;;;6.15;2.30;;;;;;;33.20;23.56;98588.41;5325903;26;20115;-80
2022/06/15 09:05:52;;;;;;;5.97;2.30;;;;;;;32.99;23.57;98582.09;5346183;26;20414;-80
2022/06/15 09:08:44;;;;;;;5.03;2.08;;;;;;;34.17;23.04;98591.72;5345982;26;20095;-80
2022/06/15 09:11:33;;;;;;;4.20;2.17;;;;;;;34.29;23.50;98588.44;5344599;26;20049;-80
2022/06/15 09:14:18;;;;;;;6.22;2.25;;;;;;;32.63;25.98;98584.06;5346114;26;20171;-80
2022/06/15 09:17:02;;;;;;;5.62;2.00;;;;;;;32.68;25.75;98581.66;5346051;26;20411;-80
2022/06/15 09:19:36;;;;;;;7.05;1.90;;;;;;;32.26;25.97;98575.28;5325359;26;20052;-80
2022/06/15 09:22:09;;;;;;;5.85;1.95;;;;;;;32.14;27.73;98577.66;5326416;26;20083;-80
2022/06/15 09:24:53;;;;;;;4.28;1.90;;;;;;;33.39;24.47;98579.69;5325945;26;20120;-80
2022/06/15 09:27:26;;;;;;;5.07;2.10;;;;;;;33.13;27.23;98579.50;5346106;26;20086;-80
2022/06/15 09:30:10;;;;;;;5.80;2.10;;;;;;;33.94;23.81;98576.00;5325158;26;20111;-80
2022/06/15 09:32:43;;;;;;;4.70;1.83;;;;;;;33.55;24.95;98575.84;5345481;26;20053;-80
2022/06/15 09:35:18;;;;;;;6.57;2.17;;;;;;;33.77;24.71;98582.72;5326253;26;20571;-80
2022/06/15 09:37:50;;;;;;;5.55;2.42;;;;;;;33.55;25.60;98571.31;5345887;26;20124;-80
2022/06/15 09:40:18;;;;;;;7.00;2.15;;;;;;;34.27;23.36;98582.47;5345065;26;20462;-80
2022/06/15 09:43:03;;;;;;;5.37;2.00;;;;;;;34.62;23.27;98577.75;5345556;26;20100;-80
2022/06/15 09:45:48;;;;;;;4.45;1.92;;;;;;;33.56;25.67;98583.66;5326950;26;20132;-80
2022/06/15 09:48:47;;;;;;;4.28;1.95;;;;;;;32.69;25.31;98577.94;5346806;26;20429;-79
2022/06/15 09:51:22;;;;;;;8.52;2.67;;;;;;;32.34;26.05;98574.38;5344324;26;20067;-80
2022/06/15 09:54:16;;;;;;;7.35;2.30;;;;;;;32.38;26.74;98572.97;5345420;26;20096;-80
2022/06/15 09:56:43;;;;;;;7.72;2.42;;;;;;;31.97;25.99;98565.53;5325291;26;20123;-81
2022/06/15 09:59:13;;;;;;;4.53;2.20;;;;;;;31.68;27.98;98571.75;5344731;26;20405;-80
2022/06/15 10:01:43;;;;;;;5.55;2.10;;;;;;;31.77;26.55;98577.84;5326029;26;20066;-80
2022/06/15 10:04:18;;;;;;;4.80;1.90;;;;;;;31.63;26.96;98575.00;5345579;26;20106;-81
2022/06/15 10:07:13;;;;;;;6.50;2.22;;;;;;;31.92;27.14;98563.47;5328859;26;20060;-80
2022/06/15 10:09:50;;;;;;;6.53;2.28;;;;;;;31.70;26.75;98564.41;5344405;26;20130;-79
2022/06/15 10:15:50;;;;;;;4.87;2.10;;;;;;;32.09;27.30;98555.19;5345863;26;20055;-79
2022/06/15 10:18:41;;;;;;;5.65;1.92;;;;;;;32.73;26.24;98563.16;5346395;26;20064;-79
2022/06/15 10:21:14;;;;;;;4.43;2.00;;;;;;;34.04;23.01;98572.94;5345191;26;20430;-79
2022/06/15 10:23:58;;;;;;;5.00;2.10;;;;;;;34.16;23.20;98565.97;5346077;26;20312;-82
2022/06/15 10:26:34;;;;;;;5.10;1.80;;;;;;;33.71;22.83;98558.59;5326302;26;20485;-80
2022/06/15 10:29:27;;;;;;;3.90;1.85;;;;;;;33.73;22.57;98557.41;5345255;26;20124;-80
2022/06/15 10:32:02;;;;;;;6.62;2.00;;;;;;;34.00;23.74;98552.13;5326299;26;20115;-79
2022/06/15 10:34:33;;;;;;;5.85;2.25;;;;;;;34.35;24.72;98552.78;5342533;26;20176;-80
2022/06/15 10:37:06;;;;;;;6.55;1.95;;;;;;;34.98;22.50;98551.34;5344031;26;20115;-81
2022/06/15 10:39:40;;;;;;;4.85;2.20;;;;;;;33.59;23.66;98561.03;5343822;26;20134;-80
2022/06/15 10:42:14;;;;;;;6.87;1.87;;;;;;;33.12;24.86;98556.47;5344049;26;20115;-79
2022/06/15 10:44:50;;;;;;;4.47;2.15;;;;;;;33.38;23.61;98565.47;5344361;26;20045;-80
2022/06/15 10:47:20;;;;;;;3.17;1.90;;;;;;;33.03;25.18;98553.94;5324905;26;20127;-81
2022/06/15 10:50:02;;;;;;;5.00;2.05;;;;;;;32.51;25.73;98559.72;5343821;26;20368;-80
2022/06/15 10:52:44;;;;;;;20.58;4.80;;;;;;;32.80;25.42;98548.84;5345906;26;20075;-81
2022/06/15 11:04:29;;;;;;;10.48;2.95;;;;;;;33.63;24.31;98541.72;5345798;26;20087;-80
2022/06/15 11:07:05;;;;;;;18.80;4.12;;;;;;;34.62;23.47;98538.37;5342817;26;20139;-80
2022/06/15 11:09:43;;;;;;;3.83;2.15;;;;;;;33.36;24.57;98535.44;5344211;26;20067;-80
2022/06/15 11:12:44;;;;;;;10.00;2.97;;;;;;;33.45;24.06;98530.75;5345292;26;20062;-80
2022/06/15 11:15:14;;;;;;;15.60;2.87;;;;;;;32.68;25.98;98522.87;5320954;26;20373;-80
2022/06/15 11:18:01;;;;;;;11.05;3.40;;;;;;;31.11;27.97;98521.78;5345087;26;20406;-81
2022/06/15 11:20:35;;;;;;;6.72;2.25;;;;;;;30.77;29.43;98522.34;5344969;26;20056;-80
2022/06/15 11:23:17;;;;;;;4.90;2.40;;;;;;;30.97;29.78;98517.31;5345501;26;20071;-80
2022/06/15 11:25:49;;;;;;;8.05;2.50;;;;;;;31.47;27.43;98521.03;5325979;26;20091;-80
2022/06/15 11:28:27;;;;;;;6.47;2.40;;;;;;;32.97;25.95;98514.66;5345619;26;20083;-81
2022/06/15 11:30:59;;;;;;;6.35;2.05;;;;;;;32.34;26.07;98512.97;5344372;26;20064;-80
2022/06/15 11:33:34;;;;;;;4.00;2.25;;;;;;;32.98;24.78;98515.47;5345900;26;20116;-79
2022/06/15 11:36:07;;;;;;;;;;;;;;;29.65;29.99;98499.91;5346292;26;20117;-80
2022/06/15 11:38:46;;;;;;;5.37;2.40;;;;;;;28.99;31.23;98507.34;5325880;26;20022;-80
2022/06/15 11:41:13;;;;;;;5.25;2.35;;;;;;;29.55;29.31;98499.31;5344876;26;20123;-80
2022/06/15 11:43:43;;;;;;;4.93;2.85;;;;;;;29.05;30.12;98503.19;5345485;26;20087;-80
2022/06/15 11:46:47;;;;;;;5.25;2.20;;;;;;;30.47;29.19;98492.97;5326160;26;20052;-80
2022/06/15 11:49:42;;;;;;;4.75;2.30;;;;;;;31.79;27.21;98495.78;5344953;26;20441;-80
2022/06/15 11:52:31;;;;;;;5.93;2.20;;;;;;;31.97;27.80;98490.81;5345551;26;20365;-80
2022/06/15 11:55:14;;;;;;;7.45;2.53;;;;;;;32.69;25.95;98497.78;5325424;26;20090;-81
2022/06/15 11:57:55;;;;;;;5.85;2.40;;;;;;;32.38;26.68;98485.66;5344915;26;20060;-81
2022/06/15 12:00:34;;;;;;;5.12;2.17;;;;;;;33.05;26.55;98495.75;5344601;26;20124;-80
2022/06/15 12:03:01;;;;;;;4.57;2.10;;;;;;;33.67;25.07;98493.97;5325941;26;20115;-81
2022/06/15 12:05:34;;;;;;;6.62;2.10;;;;;;;32.49;26.50;98497.66;5345129;26;20403;-80
2022/06/15 12:08:36;;;;;;;5.47;2.45;;;;;;;32.23;27.61;98496.41;5345777;26;20395;-81
2022/06/15 12:14:12;;;;;;;4.12;2.20;;;;;;;32.84;26.09;98503.03;5328256;26;20122;-80
2022/06/15 12:16:48;;;;;;;8.48;2.58;;;;;;;33.22;24.40;98493.59;5325722;26;20064;-80
2022/06/15 12:19:31;;;;;;;6.15;2.35;;;;;;;33.13;25.01;98486.75;5344410;26;20071;-81
2022/06/15 12:22:05;;;;;;;7.60;2.60;;;;;;;33.84;26.13;98487.22;5345468;26;20058;-81